Missoula, MT (59801)

5:40 PM MDT on May 27, 2017 (GMT -0600)
Franklin to the Fort | | Change Station

Elev 3200 ft 46.86 °N, 114.02 °W | Updated 2 seconds ago

Clear
Clear
78.0 °F
Feels Like 78 °F
N
0.0
Wind Variable Wind from NW
Gusts 8.0 mph

Today
High -- | Low -- °F
--% Chance of Precip.
Yesterday
High -- | Low -- °F
Precip. -- in
Pressure 30.12 in
Visibility 10.0 miles
Clouds Clear
Heat Index 78 °F
Dew Point 39 °F
Humidity 25%
Rainfall 0.00 in
Snow Depth Not available.
5:48 AM 9:18 PM
Waxing Crescent, 7% visible
METAR KMSO 272253Z 23003KT 10SM CLR 24/03 A3015 RMK AO2 SLP200 T02390028 $
Pressure 30.12 in
Visibility 10.0 miles
Clouds Clear
Heat Index 78 °F
Dew Point 39 °F
Humidity 25%
Rainfall 0.00 in
Snow Depth Not available.
5:48 AM 9:18 PM
Waxing Crescent, 7% visible
METAR KMSO 272253Z 23003KT 10SM CLR 24/03 A3015 RMK AO2 SLP200 T02390028 $

Get Severe Weather Alerts

Thanks for signing up!

Be on the lookout for a verification email in your inbox.

You'll start receiving the daily forecast at 6 AM.

×

10-Day Weather Forecast

Almanac

Astronomy

May. 27, 2017 Rise Set
Actual Time
Civil Twilight
Nautical Twilight
Astronomical Twilight
Moon
Length of Visible Light
Length of Day
Tomorrow will be .
, % of the Moon is Illuminated

Today's Extremes

State Highs State Lows

Community

WunderPhotos

Category 6

Welcome to Category 6. This is the collective home for Weather Underground's featured writeups by Dr. Jeff Masters (right), Bob Henson (left), Chris Burt, and other regular contributors.

Nearby

Air Quality

  Air Quality AQ Index Pollutant
Not available.

Snow Depth

Station Depth Elevation

Earthquake Activity

City Distance Mag. Time & Date
Minimum magnitude displayed is 2.5.

Coastal Water Temperatures

Place Temperature

Stations

Nearby Weather Stations

Station Location Temp. Windchill Dew Point Humidity Wind Precip. Elev Updated Type
                   

Watches & Warnings

There are currently no watches in effect.